Time;durP1;ratioP1;P1;durP2;ratioP2;P2;SDS_P1;SDS_P2;PMS_P1;PMS_P2;Temp;Humidity;BMP_temperature;BMP_pressure;BME280_temperature;BME280_humidity;BME280_pressure;Samples;Min_cycle;Max_cycle;Signal;HPM_P1;HPM_P2
2022/02/08 00:02:42;;;;;;;1.90;0.47;;;17.60;66.70;;;;;;10426741;28;20125;-54
2022/02/08 00:07:46;;;;;;;3.03;0.75;;;17.60;66.60;;;;;;10414105;28;20025;-54
2022/02/08 00:12:47;;;;;;;2.92;0.70;;;17.60;66.60;;;;;;10414101;28;20045;-53
2022/02/08 00:17:48;;;;;;;1.63;0.60;;;17.60;66.50;;;;;;10413455;28;20033;-54
2022/02/08 00:22:49;;;;;;;2.03;0.63;;;17.60;66.50;;;;;;10429415;28;20021;-55
2022/02/08 00:27:49;;;;;;;1.45;0.68;;;17.60;66.50;;;;;;10413013;28;20120;-52
2022/02/08 00:32:50;;;;;;;1.63;0.95;;;17.60;66.40;;;;;;10421492;28;20400;-55
2022/02/08 00:37:51;;;;;;;1.33;0.60;;;17.60;66.50;;;;;;10454724;28;20083;-55
2022/02/08 00:42:52;;;;;;;1.15;0.65;;;17.60;66.40;;;;;;10413860;28;20029;-54
2022/02/08 00:48:07;;;;;;;1.85;0.60;;;17.60;66.40;;;;;;10412028;28;20445;-54
2022/02/08 00:53:07;;;;;;;1.20;0.40;;;17.60;66.40;;;;;;10412746;28;20060;-54
2022/02/08 00:58:08;;;;;;;2.03;0.68;;;17.60;66.40;;;;;;10411858;28;20047;-57
2022/02/08 01:03:09;;;;;;;3.42;0.77;;;17.50;66.40;;;;;;10412812;28;20043;-53
2022/02/08 01:08:10;;;;;;;1.83;0.73;;;17.60;66.40;;;;;;10411856;28;20453;-55
2022/02/08 01:13:12;;;;;;;1.52;0.75;;;17.60;66.20;;;;;;10412794;28;20033;-54
2022/02/08 01:18:12;;;;;;;1.95;1.08;;;17.60;66.10;;;;;;10412695;28;20040;-54
2022/02/08 01:23:13;;;;;;;3.63;0.80;;;17.60;66.10;;;;;;10428225;28;20055;-54
2022/02/08 01:28:23;;;;;;;1.45;0.52;;;17.60;66.10;;;;;;10430828;28;20083;-54
2022/02/08 01:38:31;;;;;;;4.32;0.70;;;17.60;66.10;;;;;;10456602;28;20046;-54
2022/02/08 01:48:50;;;;;;;2.13;0.63;;;17.60;65.90;;;;;;10418352;28;20037;-54
2022/02/08 01:53:50;;;;;;;1.50;0.43;;;17.60;65.90;;;;;;10419877;28;20021;-54
2022/02/08 01:58:51;;;;;;;1.20;0.57;;;17.60;65.90;;;;;;10434672;28;20036;-54
2022/02/08 02:03:52;;;;;;;1.83;0.50;;;17.60;65.90;;;;;;10418179;28;20037;-55
2022/02/08 02:08:53;;;;;;;0.75;0.40;;;17.60;65.90;;;;;;10417403;28;20104;-53
2022/02/08 02:13:55;;;;;;;1.25;0.47;;;17.60;65.90;;;;;;10418797;28;20025;-53
2022/02/08 02:18:56;;;;;;;1.85;0.70;;;17.60;65.80;;;;;;10404880;28;20608;-54
2022/02/08 02:23:57;;;;;;;1.48;0.63;;;17.60;65.80;;;;;;10415103;28;20127;-54
2022/02/08 02:28:57;;;;;;;0.88;0.47;;;17.60;65.90;;;;;;10432262;28;20037;-53
2022/02/08 02:33:58;;;;;;;1.55;0.65;;;17.60;65.80;;;;;;10434228;28;20025;-54
2022/02/08 02:38:59;;;;;;;3.65;0.90;;;17.60;65.80;;;;;;10433332;28;20505;-53
2022/02/08 02:44:05;;;;;;;1.98;0.70;;;17.60;65.70;;;;;;10415067;28;20068;-54
2022/02/08 02:49:06;;;;;;;0.82;0.60;;;17.60;65.80;;;;;;10398285;28;20025;-53
2022/02/08 02:54:19;;;;;;;1.13;0.60;;;17.60;65.70;;;;;;10416524;28;20076;-53
2022/02/08 02:59:22;;;;;;;2.35;0.75;;;17.60;65.70;;;;;;10416848;28;20033;-52
2022/02/08 03:04:31;;;;;;;1.15;0.40;;;17.60;65.70;;;;;;10417025;28;20475;-54
2022/02/08 03:20:10;;;;;;;1.60;0.80;;;17.60;65.60;;;;;;10414231;28;20041;-54
2022/02/08 03:25:11;;;;;;;1.35;0.43;;;17.70;65.60;;;;;;10431485;28;20026;-54
2022/02/08 03:30:12;;;;;;;1.50;0.52;;;17.70;65.60;;;;;;10415526;28;20050;-54
2022/02/08 03:35:15;;;;;;;0.80;0.47;;;17.60;65.50;;;;;;10424960;28;20034;-53
2022/02/08 03:40:29;;;;;;;1.65;0.40;;;17.60;65.50;;;;;;10414142;28;20064;-54
2022/02/08 03:45:30;;;;;;;0.85;0.40;;;17.60;65.50;;;;;;10428802;28;20025;-54
2022/02/08 03:50:32;;;;;;;1.48;0.45;;;17.60;65.50;;;;;;10414012;28;20065;-53
2022/02/08 03:55:33;;;;;;;1.80;0.65;;;17.60;65.50;;;;;;10414705;28;20587;-54
2022/02/08 04:00:43;;;;;;;0.88;0.40;;;17.70;65.50;;;;;;10429858;28;20108;-54
2022/02/08 04:05:48;;;;;;;1.48;0.65;;;17.60;65.50;;;;;;10413227;28;20045;-52
2022/02/08 04:10:49;;;;;;;1.05;0.47;;;17.60;66.10;;;;;;10413026;28;20042;-54
2022/02/08 04:31:51;;;;;;;2.28;0.60;;;17.60;65.40;;;;;;10413125;28;20046;-55
2022/02/08 04:37:08;;;;;;;1.50;0.63;;;17.60;65.40;;;;;;10385585;28;20041;-55
2022/02/08 04:42:20;;;;;;;1.90;0.60;;;17.60;65.40;;;;;;10398634;28;20068;-55
2022/02/08 04:47:31;;;;;;;1.67;0.60;;;17.60;65.40;;;;;;10413238;28;20037;-55
2022/02/08 04:52:33;;;;;;;1.13;0.63;;;17.60;65.30;;;;;;10412999;28;20159;-55
2022/02/08 04:57:48;;;;;;;0.95;0.50;;;17.60;65.30;;;;;;10411901;28;20489;-54
2022/02/08 05:50:24;;;;;;;1.17;0.40;;;17.70;65.20;;;;;;10426782;28;20459;-53
2022/02/08 05:55:27;;;;;;;2.33;1.00;;;17.60;65.10;;;;;;10413412;28;20477;-54
2022/02/08 06:00:28;;;;;;;3.20;0.88;;;17.60;65.20;;;;;;10418457;28;20041;-56
2022/02/08 06:05:29;;;;;;;2.85;0.98;;;17.70;65.40;;;;;;10418995;28;20057;-55
2022/02/08 06:10:31;;;;;;;7.63;1.20;;;17.70;65.90;;;;;;10417577;28;20037;-55
2022/02/08 06:15:34;;;;;;;2.35;0.77;;;17.80;67.10;;;;;;10433047;28;20048;-54
2022/02/08 06:20:34;;;;;;;2.55;0.75;;;17.80;67.30;;;;;;10417309;28;20074;-53
2022/02/08 06:25:35;;;;;;;6.22;1.40;;;17.80;67.10;;;;;;10418013;28;20029;-55
2022/02/08 06:30:36;;;;;;;5.82;1.83;;;17.80;67.50;;;;;;10416822;28;20050;-56
2022/02/08 06:35:36;;;;;;;9.50;1.20;;;17.90;67.00;;;;;;10418026;28;20025;-55
2022/02/08 06:40:38;;;;;;;16.75;2.17;;;17.90;66.90;;;;;;10392190;28;20075;-56
2022/02/08 06:45:40;;;;;;;7.00;1.50;;;17.80;67.10;;;;;;10410959;28;20104;-56
2022/02/08 06:50:40;;;;;;;12.77;2.53;;;17.70;66.90;;;;;;10411117;28;20057;-56
2022/02/08 06:55:41;;;;;;;15.82;2.10;;;17.80;66.90;;;;;;10410955;28;20583;-55
2022/02/08 07:00:44;;;;;;;9.90;1.52;;;17.70;66.50;;;;;;10416049;28;20038;-56
2022/02/08 07:05:45;;;;;;;8.35;1.60;;;17.70;66.30;;;;;;10415390;28;20033;-56
2022/02/08 07:10:46;;;;;;;8.88;2.30;;;17.80;66.00;;;;;;10416497;28;20414;-56
2022/02/08 07:15:47;;;;;;;5.15;1.55;;;17.80;65.90;;;;;;10416080;28;20044;-55
2022/02/08 07:20:47;;;;;;;12.13;1.67;;;17.70;66.00;;;;;;10429540;28;20137;-57
2022/02/08 07:25:48;;;;;;;9.45;1.92;;;17.70;66.30;;;;;;10413659;28;20545;-57
2022/02/08 07:30:49;;;;;;;12.45;1.73;;;17.70;66.20;;;;;;10385933;28;20044;-56
2022/02/08 07:36:02;;;;;;;9.30;1.77;;;17.60;66.10;;;;;;10426782;28;20124;-55
2022/02/08 07:46:07;;;;;;;6.43;1.38;;;17.50;66.10;;;;;;10411359;28;20410;-56
2022/02/08 07:51:09;;;;;;;4.15;1.42;;;17.50;66.10;;;;;;10424829;28;20061;-56
2022/02/08 07:56:12;;;;;;;5.50;3.10;;;17.50;65.90;;;;;;10410289;28;20025;-56
2022/02/08 08:01:13;;;;;;;6.78;1.42;;;17.60;65.80;;;;;;10397357;28;20391;-56
2022/02/08 08:06:16;;;;;;;5.10;2.00;;;17.50;65.70;;;;;;10414224;28;20033;-56
2022/02/08 08:11:21;;;;;;;2.65;0.90;;;17.60;65.80;;;;;;10405061;28;20048;-56
2022/02/08 08:16:53;;;;;;;3.28;1.15;;;17.60;65.70;;;;;;10408131;28;20491;-56
2022/02/08 08:21:43;;;;;;;4.90;1.60;;;17.60;65.70;;;;;;10412728;28;20170;-57
2022/02/08 08:26:44;;;;;;;2.90;0.90;;;17.60;65.50;;;;;;10395886;28;20132;-56
2022/02/08 08:31:44;;;;;;;3.63;1.02;;;17.60;65.70;;;;;;10411930;28;20041;-57
2022/02/08 08:36:47;;;;;;;3.75;1.10;;;17.60;65.60;;;;;;10429842;28;20171;-56
2022/02/08 08:41:55;;;;;;;2.90;0.85;;;17.60;65.60;;;;;;10404900;28;20088;-56
2022/02/08 08:52:28;;;;;;;2.80;1.00;;;17.50;65.60;;;;;;10412626;28;20041;-56
2022/02/08 08:57:29;;;;;;;3.67;1.00;;;17.50;65.50;;;;;;10427849;28;20432;-57
2022/02/08 09:02:29;;;;;;;1.88;1.02;;;17.60;65.50;;;;;;10417182;28;20039;-57
2022/02/08 09:07:31;;;;;;;3.70;1.00;;;17.60;65.30;;;;;;10428186;28;20500;-57
2022/02/08 09:18:01;;;;;;;4.32;1.15;;;17.60;65.30;;;;;;10380053;28;20030;-56
2022/02/08 09:23:55;;;;;;;2.28;0.80;;;17.60;65.20;;;;;;10405734;28;20038;-56
2022/02/08 09:28:42;;;;;;;4.72;1.08;;;17.60;65.50;;;;;;10411148;28;20061;-56
2022/02/08 09:33:42;;;;;;;3.25;0.90;;;17.60;65.80;;;;;;10412553;28;20104;-56
2022/02/08 09:38:43;;;;;;;3.38;1.10;;;17.50;65.70;;;;;;10410133;28;20486;-55
2022/02/08 09:43:46;;;;;;;3.55;0.90;;;17.60;65.70;;;;;;10418291;28;20061;-57
2022/02/08 09:48:55;;;;;;;3.08;0.90;;;17.50;65.60;;;;;;10412385;28;20029;-56
2022/02/08 09:53:58;;;;;;;6.55;0.95;;;17.50;65.60;;;;;;10402484;28;20478;-56
2022/02/08 09:58:59;;;;;;;2.47;0.77;;;17.50;65.70;;;;;;10375447;28;20022;-56
2022/02/08 10:04:01;;;;;;;3.90;0.98;;;17.40;65.70;;;;;;10374827;28;20467;-56
2022/02/08 10:09:06;;;;;;;2.95;1.13;;;17.40;65.50;;;;;;10373491;28;20109;-56
2022/02/08 10:14:19;;;;;;;1.95;0.60;;;17.50;65.50;;;;;;10374537;28;20038;-56
2022/02/08 10:24:46;;;;;;;3.15;0.90;;;17.50;65.30;;;;;;10375787;28;20049;-55
2022/02/08 10:40:19;;;;;;;2.92;1.02;;;17.50;65.20;;;;;;10458347;28;20029;-56
2022/02/08 10:45:26;;;;;;;2.03;0.80;;;17.60;65.20;;;;;;10457018;28;20029;-56
2022/02/08 10:50:29;;;;;;;1.23;0.47;;;17.60;64.90;;;;;;10457681;28;20045;-56
2022/02/08 11:15:55;;;;;;;2.05;0.82;;;17.60;64.70;;;;;;10455871;28;20448;-56
2022/02/08 11:26:34;;;;;;;2.30;0.88;;;17.60;64.60;;;;;;10455554;28;20400;-57
2022/02/08 11:31:40;;;;;;;2.72;0.93;;;17.60;64.60;;;;;;10454802;28;20051;-56
2022/02/08 11:52:57;;;;;;;1.65;0.60;;;17.60;64.60;;;;;;10414899;28;20061;-56
2022/02/08 12:03:45;;;;;;;1.67;0.50;;;17.50;64.70;;;;;;10398501;28;20041;-56
2022/02/08 12:08:42;;;;;;;3.50;0.90;;;17.50;64.70;;;;;;10406069;28;20034;-55
2022/02/08 14:11:01;;;;;;;8.48;0.98;;;17.50;65.30;;;;;;10419875;28;20034;-55
2022/02/08 15:08:41;;;;;;;4.50;1.40;;;17.50;66.00;;;;;;10411532;28;20041;-57
2022/02/08 15:13:48;;;;;;;7.10;1.08;;;17.50;65.50;;;;;;10414514;28;20122;-57
2022/02/08 15:18:49;;;;;;;6.07;1.30;;;17.60;64.60;;;;;;10414313;28;20049;-56
2022/02/08 15:23:50;;;;;;;4.80;1.30;;;17.60;64.50;;;;;;10413651;28;20034;-54
2022/02/08 15:28:51;;;;;;;4.63;0.90;;;17.70;64.00;;;;;;10413162;28;20120;-56
2022/02/08 15:33:56;;;;;;;8.50;1.20;;;17.70;63.30;;;;;;10429724;28;20029;-56
2022/02/08 15:39:02;;;;;;;4.45;1.20;;;17.80;62.70;;;;;;10431046;28;20037;-57
2022/02/08 15:44:03;;;;;;;5.05;1.13;;;17.80;62.50;;;;;;10397089;28;20491;-56
2022/02/08 15:49:04;;;;;;;4.90;1.10;;;17.80;62.20;;;;;;10399071;28;20037;-56
2022/02/08 16:46:38;;;;;;;2.13;0.80;;;18.30;57.80;;;;;;10404250;28;20128;-56
2022/02/08 16:56:57;;;;;;;3.40;0.90;;;18.30;57.70;;;;;;10411929;28;20404;-56
2022/02/08 17:02:01;;;;;;;11.15;2.03;;;18.40;58.20;;;;;;10417190;28;20025;-55
2022/02/08 17:07:03;;;;;;;12.57;2.33;;;18.40;58.00;;;;;;10417674;28;20108;-56
2022/02/08 17:12:15;;;;;;;9.65;3.28;;;18.50;58.40;;;;;;10408335;28;20026;-57
2022/02/08 17:17:42;;;;;;;9.00;2.83;;;18.60;59.90;;;;;;10416877;28;20033;-54
2022/02/08 17:49:15;;;;;;;6.28;2.00;;;18.50;62.70;;;;;;10419708;28;20466;-57
2022/02/08 17:54:16;;;;;;;6.55;1.98;;;18.40;63.10;;;;;;10415539;28;20033;-57
2022/02/08 17:59:20;;;;;;;10.02;1.98;;;18.40;63.50;;;;;;10403721;28;20044;-57
2022/02/08 18:04:21;;;;;;;12.68;2.42;;;18.30;63.80;;;;;;10389148;28;20105;-57
2022/02/08 18:09:24;;;;;;;8.00;2.22;;;18.30;64.60;;;;;;10383240;28;20679;-57
2022/02/08 18:14:28;;;;;;;12.13;2.83;;;18.20;64.20;;;;;;10403183;28;20026;-56
2022/02/08 18:19:34;;;;;;;13.63;2.45;;;18.10;64.40;;;;;;10366744;28;20031;-56
2022/02/08 18:25:14;;;;;;;13.50;2.53;;;18.00;64.60;;;;;;10414447;28;20136;-58
2022/02/08 19:12:30;;;;;;;5.38;1.40;;;17.50;65.10;;;;;;10413450;28;20045;-56
2022/02/08 19:18:18;;;;;;;7.38;1.52;;;17.50;65.20;;;;;;10408984;28;20398;-56
2022/02/08 19:22:59;;;;;;;5.90;1.67;;;17.40;65.20;;;;;;10405698;28;20517;-56
2022/02/08 19:28:01;;;;;;;9.30;1.90;;;17.40;65.20;;;;;;10395007;28;20033;-56
2022/02/08 19:33:03;;;;;;;8.27;1.45;;;17.30;65.20;;;;;;10388963;28;20111;-56
2022/02/08 19:38:05;;;;;;;7.28;1.55;;;17.40;65.30;;;;;;10412232;28;20025;-56
2022/02/08 19:43:06;;;;;;;5.43;1.45;;;17.40;65.40;;;;;;10427778;28;20091;-56
2022/02/08 19:48:08;;;;;;;3.58;1.70;;;17.40;65.40;;;;;;10427990;28;20163;-55
2022/02/08 19:53:10;;;;;;;4.32;1.23;;;17.40;65.40;;;;;;10427868;28;20037;-56
2022/02/08 19:58:24;;;;;;;3.83;1.20;;;17.40;65.40;;;;;;10426875;28;20033;-56
2022/02/08 20:03:32;;;;;;;4.47;1.40;;;17.30;65.40;;;;;;10408993;28;20037;-56
2022/02/08 20:08:32;;;;;;;4.07;1.45;;;17.30;65.50;;;;;;10390038;28;20044;-55
2022/02/08 20:13:33;;;;;;;4.28;1.48;;;17.40;66.10;;;;;;10379168;28;20038;-55
2022/02/08 20:18:34;;;;;;;3.88;1.33;;;17.40;65.60;;;;;;10410802;28;20437;-55
2022/02/08 20:23:35;;;;;;;4.68;1.50;;;17.50;65.60;;;;;;10412034;28;20041;-55
2022/02/08 20:28:47;;;;;;;5.03;1.30;;;17.40;65.60;;;;;;10412348;28;20045;-55
2022/02/08 20:33:49;;;;;;;3.70;1.25;;;17.40;65.80;;;;;;10412875;28;20030;-55
2022/02/08 20:38:51;;;;;;;5.78;1.00;;;17.50;65.90;;;;;;10412468;28;20030;-56
2022/02/08 20:43:53;;;;;;;2.95;0.98;;;17.50;65.90;;;;;;10407928;28;20436;-56
2022/02/08 20:48:54;;;;;;;4.35;0.95;;;17.40;65.80;;;;;;10414469;28;20129;-55
2022/02/08 20:53:59;;;;;;;3.80;0.90;;;17.40;65.80;;;;;;10413998;28;20706;-55
2022/02/08 21:04:15;;;;;;;4.95;1.27;;;17.40;65.60;;;;;;10409119;28;20060;-56
2022/02/08 21:09:17;;;;;;;2.25;0.93;;;17.50;65.60;;;;;;10409963;28;20025;-55
2022/02/08 21:14:19;;;;;;;4.03;1.35;;;17.50;65.60;;;;;;10411908;28;20520;-55
2022/02/08 21:19:27;;;;;;;3.22;1.20;;;17.50;65.40;;;;;;10418094;28;20041;-56
2022/02/08 21:24:30;;;;;;;2.72;0.70;;;17.50;65.40;;;;;;10411512;28;20036;-56
2022/02/08 21:55:41;;;;;;;3.65;0.90;;;17.60;65.00;;;;;;10426210;28;20026;-55
2022/02/08 22:00:43;;;;;;;2.72;0.82;;;17.50;64.90;;;;;;10418440;28;20029;-55
2022/02/08 22:05:44;;;;;;;1.52;0.50;;;17.50;64.90;;;;;;10414135;28;20026;-55
2022/02/08 22:16:00;;;;;;;2.72;0.75;;;17.60;64.90;;;;;;10406706;28;20268;-54
2022/02/08 22:21:08;;;;;;;1.63;0.80;;;17.50;64.80;;;;;;10377873;28;20022;-55
2022/02/08 22:31:19;;;;;;;1.52;0.80;;;17.60;64.70;;;;;;10410135;28;20095;-56
2022/02/08 22:36:25;;;;;;;1.83;0.82;;;17.60;64.70;;;;;;10442604;28;20025;-55
2022/02/08 22:41:39;;;;;;;1.85;0.60;;;17.50;64.70;;;;;;10416683;28;20025;-55
2022/02/08 22:46:40;;;;;;;1.27;0.45;;;17.50;64.80;;;;;;10416731;28;20351;-55
2022/02/08 22:51:41;;;;;;;2.75;0.73;;;17.60;64.70;;;;;;10416342;28;20017;-55
2022/02/08 22:56:46;;;;;;;1.75;0.82;;;17.60;64.70;;;;;;10416689;28;20035;-55
2022/02/08 23:01:48;;;;;;;1.10;0.50;;;17.60;64.70;;;;;;10415765;28;20025;-56
2022/02/08 23:06:52;;;;;;;1.50;0.70;;;17.60;64.60;;;;;;10415828;28;20029;-55
2022/02/08 23:38:00;;;;;;;1.30;0.60;;;17.50;64.50;;;;;;10415706;28;20069;-56
2022/02/08 23:43:01;;;;;;;1.50;0.57;;;17.50;64.50;;;;;;10414219;28;20029;-55
2022/02/08 23:53:18;;;;;;;1.58;0.60;;;17.60;64.50;;;;;;10392059;28;20049;-56
2022/02/08 23:58:19;;;;;;;1.23;0.47;;;17.60;64.50;;;;;;10374225;28;20112;-56
